sensor_id;sensor_type;location;lat;lon;timestamp;temperature;humidity
20732;DHT22;10527;52.124;5.196;2022-08-25T00:02:06;24.50;99.90
20732;DHT22;10527;52.124;5.196;2022-08-25T00:04:37;24.30;99.90
20732;DHT22;10527;52.124;5.196;2022-08-25T00:07:06;24.30;99.90
20732;DHT22;10527;52.124;5.196;2022-08-25T00:09:34;24.30;99.90
20732;DHT22;10527;52.124;5.196;2022-08-25T00:12:02;24.20;99.90
20732;DHT22;10527;52.124;5.196;2022-08-25T00:14:34;24.20;99.90
20732;DHT22;10527;52.124;5.196;2022-08-25T00:17:04;24.20;99.90
20732;DHT22;10527;52.124;5.196;2022-08-25T00:19:36;24.20;99.90
20732;DHT22;10527;52.124;5.196;2022-08-25T00:22:04;24.20;99.90
20732;DHT22;10527;52.124;5.196;2022-08-25T00:24:33;24.10;99.90
20732;DHT22;10527;52.124;5.196;2022-08-25T00:27:01;24.10;99.90
20732;DHT22;10527;52.124;5.196;2022-08-25T00:29:30;24.10;99.90
20732;DHT22;10527;52.124;5.196;2022-08-25T00:31:58;24.10;99.90
20732;DHT22;10527;52.124;5.196;2022-08-25T00:34:30;24.10;99.90
20732;DHT22;10527;52.124;5.196;2022-08-25T00:37:01;24.10;99.90
20732;DHT22;10527;52.124;5.196;2022-08-25T00:39:30;24.00;99.90
20732;DHT22;10527;52.124;5.196;2022-08-25T00:41:57;24.00;99.90
20732;DHT22;10527;52.124;5.196;2022-08-25T00:44:28;23.90;99.90
20732;DHT22;10527;52.124;5.196;2022-08-25T00:46:58;23.90;99.90
20732;DHT22;10527;52.124;5.196;2022-08-25T00:49:39;23.80;99.90
20732;DHT22;10527;52.124;5.196;2022-08-25T00:52:39;23.90;99.90
20732;DHT22;10527;52.124;5.196;2022-08-25T00:55:24;23.90;99.90
20732;DHT22;10527;52.124;5.196;2022-08-25T00:57:59;23.80;99.90
20732;DHT22;10527;52.124;5.196;2022-08-25T01:00:38;23.80;99.90
20732;DHT22;10527;52.124;5.196;2022-08-25T01:03:08;23.70;99.90
20732;DHT22;10527;52.124;5.196;2022-08-25T01:05:36;23.70;99.90
20732;DHT22;10527;52.124;5.196;2022-08-25T01:08:07;23.70;99.90
20732;DHT22;10527;52.124;5.196;2022-08-25T01:10:38;23.60;99.90
20732;DHT22;10527;52.124;5.196;2022-08-25T01:13:13;23.60;99.90
20732;DHT22;10527;52.124;5.196;2022-08-25T01:15:46;23.50;99.90
20732;DHT22;10527;52.124;5.196;2022-08-25T01:18:17;23.50;99.90
20732;DHT22;10527;52.124;5.196;2022-08-25T01:20:48;23.50;99.90
20732;DHT22;10527;52.124;5.196;2022-08-25T01:23:17;23.50;99.90
20732;DHT22;10527;52.124;5.196;2022-08-25T01:25:52;23.50;99.90
20732;DHT22;10527;52.124;5.196;2022-08-25T01:28:27;23.40;99.90
20732;DHT22;10527;52.124;5.196;2022-08-25T01:30:54;23.40;99.90
20732;DHT22;10527;52.124;5.196;2022-08-25T01:33:21;23.40;99.90
20732;DHT22;10527;52.124;5.196;2022-08-25T01:35:48;23.30;99.90
20732;DHT22;10527;52.124;5.196;2022-08-25T01:38:15;23.30;99.90
20732;DHT22;10527;52.124;5.196;2022-08-25T01:40:43;23.40;99.90
20732;DHT22;10527;52.124;5.196;2022-08-25T01:45:43;23.30;99.90
20732;DHT22;10527;52.124;5.196;2022-08-25T01:48:12;23.40;99.90
20732;DHT22;10527;52.124;5.196;2022-08-25T01:50:41;23.30;99.90
20732;DHT22;10527;52.124;5.196;2022-08-25T01:53:18;23.20;99.90
20732;DHT22;10527;52.124;5.196;2022-08-25T01:55:49;23.10;99.90
20732;DHT22;10527;52.124;5.196;2022-08-25T01:58:22;23.10;99.90
20732;DHT22;10527;52.124;5.196;2022-08-25T02:01:01;23.10;99.90
20732;DHT22;10527;52.124;5.196;2022-08-25T02:03:31;23.10;99.90
20732;DHT22;10527;52.124;5.196;2022-08-25T02:05:59;23.10;99.90
20732;DHT22;10527;52.124;5.196;2022-08-25T02:08:30;23.00;99.90
20732;DHT22;10527;52.124;5.196;2022-08-25T02:10:58;23.00;99.90
20732;DHT22;10527;52.124;5.196;2022-08-25T02:13:25;23.00;99.90
20732;DHT22;10527;52.124;5.196;2022-08-25T02:15:58;23.00;99.90
20732;DHT22;10527;52.124;5.196;2022-08-25T02:18:26;22.90;99.90
20732;DHT22;10527;52.124;5.196;2022-08-25T02:20:53;22.90;99.90
20732;DHT22;10527;52.124;5.196;2022-08-25T02:23:20;22.90;99.90
20732;DHT22;10527;52.124;5.196;2022-08-25T02:25:47;22.90;99.90
20732;DHT22;10527;52.124;5.196;2022-08-25T02:28:14;22.90;99.90
20732;DHT22;10527;52.124;5.196;2022-08-25T02:30:41;22.90;99.90
20732;DHT22;10527;52.124;5.196;2022-08-25T02:33:09;22.90;99.90
20732;DHT22;10527;52.124;5.196;2022-08-25T02:35:37;22.90;99.90
20732;DHT22;10527;52.124;5.196;2022-08-25T02:38:05;22.90;99.90
20732;DHT22;10527;52.124;5.196;2022-08-25T02:40:32;22.80;99.90
20732;DHT22;10527;52.124;5.196;2022-08-25T02:42:59;22.80;99.90
20732;DHT22;10527;52.124;5.196;2022-08-25T02:45:28;22.80;99.90
20732;DHT22;10527;52.124;5.196;2022-08-25T02:47:55;22.80;99.90
20732;DHT22;10527;52.124;5.196;2022-08-25T02:50:22;22.80;99.90
20732;DHT22;10527;52.124;5.196;2022-08-25T02:52:49;22.70;99.90
20732;DHT22;10527;52.124;5.196;2022-08-25T02:55:17;22.80;99.90
20732;DHT22;10527;52.124;5.196;2022-08-25T02:57:44;22.80;99.90
20732;DHT22;10527;52.124;5.196;2022-08-25T03:00:13;22.70;99.90
20732;DHT22;10527;52.124;5.196;2022-08-25T03:02:43;22.80;99.90
20732;DHT22;10527;52.124;5.196;2022-08-25T03:05:11;22.80;99.90
20732;DHT22;10527;52.124;5.196;2022-08-25T03:07:40;22.80;99.90
20732;DHT22;10527;52.124;5.196;2022-08-25T03:10:13;22.80;99.90
20732;DHT22;10527;52.124;5.196;2022-08-25T03:12:42;22.80;99.90
20732;DHT22;10527;52.124;5.196;2022-08-25T03:15:13;22.80;99.90
20732;DHT22;10527;52.124;5.196;2022-08-25T03:17:45;22.90;99.90
20732;DHT22;10527;52.124;5.196;2022-08-25T03:20:17;22.80;99.90
20732;DHT22;10527;52.124;5.196;2022-08-25T03:22:45;22.90;99.90
20732;DHT22;10527;52.124;5.196;2022-08-25T03:25:12;22.80;99.90
20732;DHT22;10527;52.124;5.196;2022-08-25T03:27:58;22.90;99.90
20732;DHT22;10527;52.124;5.196;2022-08-25T03:30:26;22.80;99.90
20732;DHT22;10527;52.124;5.196;2022-08-25T03:32:53;22.80;99.90
20732;DHT22;10527;52.124;5.196;2022-08-25T03:35:20;22.80;99.90
20732;DHT22;10527;52.124;5.196;2022-08-25T03:37:49;22.80;99.90
20732;DHT22;10527;52.124;5.196;2022-08-25T03:40:16;22.90;99.90
20732;DHT22;10527;52.124;5.196;2022-08-25T03:42:44;22.80;99.90
20732;DHT22;10527;52.124;5.196;2022-08-25T03:45:13;22.80;99.90
20732;DHT22;10527;52.124;5.196;2022-08-25T03:47:44;22.70;99.90
20732;DHT22;10527;52.124;5.196;2022-08-25T03:50:16;22.70;99.90
20732;DHT22;10527;52.124;5.196;2022-08-25T03:52:49;22.80;99.90
20732;DHT22;10527;52.124;5.196;2022-08-25T03:55:16;22.70;99.90
20732;DHT22;10527;52.124;5.196;2022-08-25T03:57:45;22.70;99.90
20732;DHT22;10527;52.124;5.196;2022-08-25T04:00:12;22.80;99.90
20732;DHT22;10527;52.124;5.196;2022-08-25T04:02:40;22.70;99.90
20732;DHT22;10527;52.124;5.196;2022-08-25T04:05:09;22.70;99.90
20732;DHT22;10527;52.124;5.196;2022-08-25T04:07:37;22.70;99.90
20732;DHT22;10527;52.124;5.196;2022-08-25T04:10:08;22.70;99.90
20732;DHT22;10527;52.124;5.196;2022-08-25T04:12:36;22.70;99.90
20732;DHT22;10527;52.124;5.196;2022-08-25T04:15:05;22.70;99.90
20732;DHT22;10527;52.124;5.196;2022-08-25T04:17:36;22.70;99.90
20732;DHT22;10527;52.124;5.196;2022-08-25T04:20:09;22.70;99.90
20732;DHT22;10527;52.124;5.196;2022-08-25T04:22:39;22.60;99.90
20732;DHT22;10527;52.124;5.196;2022-08-25T04:25:10;22.60;99.90
20732;DHT22;10527;52.124;5.196;2022-08-25T04:27:37;22.50;99.90
20732;DHT22;10527;52.124;5.196;2022-08-25T04:30:05;22.50;99.90
20732;DHT22;10527;52.124;5.196;2022-08-25T04:32:33;22.50;99.90
20732;DHT22;10527;52.124;5.196;2022-08-25T04:35:02;22.50;99.90
20732;DHT22;10527;52.124;5.196;2022-08-25T04:37:30;22.40;99.90
20732;DHT22;10527;52.124;5.196;2022-08-25T04:39:59;22.40;99.90
20732;DHT22;10527;52.124;5.196;2022-08-25T04:42:26;22.40;99.90
20732;DHT22;10527;52.124;5.196;2022-08-25T04:44:53;22.40;99.90
20732;DHT22;10527;52.124;5.196;2022-08-25T04:47:20;22.30;99.90
20732;DHT22;10527;52.124;5.196;2022-08-25T04:49:47;22.40;99.90
20732;DHT22;10527;52.124;5.196;2022-08-25T04:52:14;22.40;99.90
20732;DHT22;10527;52.124;5.196;2022-08-25T04:54:41;22.30;99.90
20732;DHT22;10527;52.124;5.196;2022-08-25T04:57:09;22.30;99.90
20732;DHT22;10527;52.124;5.196;2022-08-25T04:59:36;22.30;99.90
20732;DHT22;10527;52.124;5.196;2022-08-25T05:02:04;22.30;99.90
20732;DHT22;10527;52.124;5.196;2022-08-25T05:04:34;22.30;99.90
20732;DHT22;10527;52.124;5.196;2022-08-25T05:07:02;22.30;99.90
20732;DHT22;10527;52.124;5.196;2022-08-25T05:09:30;22.20;99.90
20732;DHT22;10527;52.124;5.196;2022-08-25T05:11:59;22.20;99.90
20732;DHT22;10527;52.124;5.196;2022-08-25T05:14:27;22.20;99.90
20732;DHT22;10527;52.124;5.196;2022-08-25T05:16:55;22.20;99.90
20732;DHT22;10527;52.124;5.196;2022-08-25T05:19:23;22.20;99.90
20732;DHT22;10527;52.124;5.196;2022-08-25T05:21:50;22.20;99.90
20732;DHT22;10527;52.124;5.196;2022-08-25T05:24:18;22.20;99.90
20732;DHT22;10527;52.124;5.196;2022-08-25T05:26:46;22.20;99.90
20732;DHT22;10527;52.124;5.196;2022-08-25T05:29:13;22.10;99.90
20732;DHT22;10527;52.124;5.196;2022-08-25T05:31:39;22.20;99.90
20732;DHT22;10527;52.124;5.196;2022-08-25T05:34:12;22.20;99.90
20732;DHT22;10527;52.124;5.196;2022-08-25T05:36:39;22.20;99.90
20732;DHT22;10527;52.124;5.196;2022-08-25T05:39:09;22.20;99.90
20732;DHT22;10527;52.124;5.196;2022-08-25T05:41:36;22.20;99.90
20732;DHT22;10527;52.124;5.196;2022-08-25T05:44:04;22.30;99.90
20732;DHT22;10527;52.124;5.196;2022-08-25T05:46:31;22.30;99.90
20732;DHT22;10527;52.124;5.196;2022-08-25T05:49:00;22.30;99.90
20732;DHT22;10527;52.124;5.196;2022-08-25T05:51:27;22.30;99.90
20732;DHT22;10527;52.124;5.196;2022-08-25T05:53:54;22.40;99.90
20732;DHT22;10527;52.124;5.196;2022-08-25T05:56:21;22.40;99.90
20732;DHT22;10527;52.124;5.196;2022-08-25T05:58:48;22.50;99.90
20732;DHT22;10527;52.124;5.196;2022-08-25T06:01:27;22.50;99.90
20732;DHT22;10527;52.124;5.196;2022-08-25T06:04:16;22.60;99.90
20732;DHT22;10527;52.124;5.196;2022-08-25T06:06:46;22.60;99.90
20732;DHT22;10527;52.124;5.196;2022-08-25T06:09:14;22.60;99.90
20732;DHT22;10527;52.124;5.196;2022-08-25T06:11:40;22.70;99.90
20732;DHT22;10527;52.124;5.196;2022-08-25T06:14:10;22.70;99.90
20732;DHT22;10527;52.124;5.196;2022-08-25T06:16:38;22.70;99.90
20732;DHT22;10527;52.124;5.196;2022-08-25T06:19:07;22.80;99.90
20732;DHT22;10527;52.124;5.196;2022-08-25T06:21:36;22.80;99.90
20732;DHT22;10527;52.124;5.196;2022-08-25T06:24:09;22.90;99.90
20732;DHT22;10527;52.124;5.196;2022-08-25T06:26:41;22.90;99.90
20732;DHT22;10527;52.124;5.196;2022-08-25T06:29:10;22.90;99.90
20732;DHT22;10527;52.124;5.196;2022-08-25T06:31:39;22.90;99.90
20732;DHT22;10527;52.124;5.196;2022-08-25T06:34:07;22.90;99.90
20732;DHT22;10527;52.124;5.196;2022-08-25T06:36:35;23.00;99.90
20732;DHT22;10527;52.124;5.196;2022-08-25T06:39:01;23.00;99.90
20732;DHT22;10527;52.124;5.196;2022-08-25T06:41:30;23.00;99.90
20732;DHT22;10527;52.124;5.196;2022-08-25T06:44:04;23.00;99.90
20732;DHT22;10527;52.124;5.196;2022-08-25T06:46:31;23.00;99.90
20732;DHT22;10527;52.124;5.196;2022-08-25T06:49:03;23.00;99.90
20732;DHT22;10527;52.124;5.196;2022-08-25T06:51:31;22.90;99.90
20732;DHT22;10527;52.124;5.196;2022-08-25T06:54:01;23.00;99.90
20732;DHT22;10527;52.124;5.196;2022-08-25T06:56:29;23.00;99.90
20732;DHT22;10527;52.124;5.196;2022-08-25T06:58:56;23.00;99.90
20732;DHT22;10527;52.124;5.196;2022-08-25T07:01:24;23.10;99.90
20732;DHT22;10527;52.124;5.196;2022-08-25T07:03:55;23.20;99.90
20732;DHT22;10527;52.124;5.196;2022-08-25T07:06:26;23.30;99.90
20732;DHT22;10527;52.124;5.196;2022-08-25T07:08:54;23.30;99.90
20732;DHT22;10527;52.124;5.196;2022-08-25T07:11:21;23.30;99.90
20732;DHT22;10527;52.124;5.196;2022-08-25T07:13:49;23.40;99.90
20732;DHT22;10527;52.124;5.196;2022-08-25T07:16:18;23.40;99.90
20732;DHT22;10527;52.124;5.196;2022-08-25T07:18:47;23.60;99.90
20732;DHT22;10527;52.124;5.196;2022-08-25T07:21:14;23.50;99.90
20732;DHT22;10527;52.124;5.196;2022-08-25T07:23:42;23.60;99.90
20732;DHT22;10527;52.124;5.196;2022-08-25T07:26:15;23.60;99.90
20732;DHT22;10527;52.124;5.196;2022-08-25T07:29:10;23.70;99.90
20732;DHT22;10527;52.124;5.196;2022-08-25T07:32:00;23.70;99.90
20732;DHT22;10527;52.124;5.196;2022-08-25T07:34:28;23.80;99.90
20732;DHT22;10527;52.124;5.196;2022-08-25T07:37:20;23.80;99.90
20732;DHT22;10527;52.124;5.196;2022-08-25T07:40:13;23.90;99.90
20732;DHT22;10527;52.124;5.196;2022-08-25T07:42:53;23.90;99.90
20732;DHT22;10527;52.124;5.196;2022-08-25T07:45:24;23.90;99.90
20732;DHT22;10527;52.124;5.196;2022-08-25T07:48:10;24.00;99.90
20732;DHT22;10527;52.124;5.196;2022-08-25T07:50:41;23.90;99.90
20732;DHT22;10527;52.124;5.196;2022-08-25T07:53:12;24.10;99.90
20732;DHT22;10527;52.124;5.196;2022-08-25T07:55:41;24.10;99.90
20732;DHT22;10527;52.124;5.196;2022-08-25T07:58:12;24.20;99.90
20732;DHT22;10527;52.124;5.196;2022-08-25T08:00:40;24.20;99.90
20732;DHT22;10527;52.124;5.196;2022-08-25T08:03:08;24.30;99.90
20732;DHT22;10527;52.124;5.196;2022-08-25T08:05:55;24.40;99.90
20732;DHT22;10527;52.124;5.196;2022-08-25T08:08:22;24.40;99.90
20732;DHT22;10527;52.124;5.196;2022-08-25T08:10:49;24.40;99.90
20732;DHT22;10527;52.124;5.196;2022-08-25T08:13:35;24.60;99.90
20732;DHT22;10527;52.124;5.196;2022-08-25T08:16:12;25.00;99.90
20732;DHT22;10527;52.124;5.196;2022-08-25T08:18:44;25.30;99.90
20732;DHT22;10527;52.124;5.196;2022-08-25T08:21:24;25.60;99.90
20732;DHT22;10527;52.124;5.196;2022-08-25T08:23:56;25.80;99.90
20732;DHT22;10527;52.124;5.196;2022-08-25T08:26:25;26.10;99.90
20732;DHT22;10527;52.124;5.196;2022-08-25T08:29:14;26.30;99.90
20732;DHT22;10527;52.124;5.196;2022-08-25T08:31:41;26.50;99.90
20732;DHT22;10527;52.124;5.196;2022-08-25T08:34:14;26.70;99.90
20732;DHT22;10527;52.124;5.196;2022-08-25T08:36:42;27.10;99.90
20732;DHT22;10527;52.124;5.196;2022-08-25T08:39:10;27.20;99.90
20732;DHT22;10527;52.124;5.196;2022-08-25T08:50:29;28.20;99.90
20732;DHT22;10527;52.124;5.196;2022-08-25T08:53:10;28.50;99.90
20732;DHT22;10527;52.124;5.196;2022-08-25T08:55:54;28.70;99.90
20732;DHT22;10527;52.124;5.196;2022-08-25T08:58:57;28.90;99.90
20732;DHT22;10527;52.124;5.196;2022-08-25T09:01:43;29.10;99.90
20732;DHT22;10527;52.124;5.196;2022-08-25T09:07:44;29.30;99.90
20732;DHT22;10527;52.124;5.196;2022-08-25T09:10:22;29.70;99.90
20732;DHT22;10527;52.124;5.196;2022-08-25T09:15:53;29.70;99.90
20732;DHT22;10527;52.124;5.196;2022-08-25T09:19:11;29.80;99.90
20732;DHT22;10527;52.124;5.196;2022-08-25T09:25:28;30.10;99.90
20732;DHT22;10527;52.124;5.196;2022-08-25T09:28:42;30.20;99.90
20732;DHT22;10527;52.124;5.196;2022-08-25T09:31:21;30.40;99.90
20732;DHT22;10527;52.124;5.196;2022-08-25T09:33:57;30.50;99.90
20732;DHT22;10527;52.124;5.196;2022-08-25T09:36:28;30.60;99.90
20732;DHT22;10527;52.124;5.196;2022-08-25T09:39:03;30.60;99.90
20732;DHT22;10527;52.124;5.196;2022-08-25T09:41:50;30.60;99.90
20732;DHT22;10527;52.124;5.196;2022-08-25T09:44:22;30.90;99.90
20732;DHT22;10527;52.124;5.196;2022-08-25T09:47:03;31.00;99.90
20732;DHT22;10527;52.124;5.196;2022-08-25T09:49:43;30.90;99.90
20732;DHT22;10527;52.124;5.196;2022-08-25T09:54:55;31.00;99.90
20732;DHT22;10527;52.124;5.196;2022-08-25T09:57:35;30.90;99.90
20732;DHT22;10527;52.124;5.196;2022-08-25T10:03:09;30.90;99.90
20732;DHT22;10527;52.124;5.196;2022-08-25T10:08:37;31.00;99.90
20732;DHT22;10527;52.124;5.196;2022-08-25T10:11:09;31.00;99.90
20732;DHT22;10527;52.124;5.196;2022-08-25T10:13:46;31.20;99.90
20732;DHT22;10527;52.124;5.196;2022-08-25T10:16:26;31.20;99.90
20732;DHT22;10527;52.124;5.196;2022-08-25T10:19:10;31.40;99.90
20732;DHT22;10527;52.124;5.196;2022-08-25T10:22:11;31.70;99.90
20732;DHT22;10527;52.124;5.196;2022-08-25T10:24:49;31.70;99.90
20732;DHT22;10527;52.124;5.196;2022-08-25T10:30:19;31.60;99.90
20732;DHT22;10527;52.124;5.196;2022-08-25T10:38:34;31.80;99.90
20732;DHT22;10527;52.124;5.196;2022-08-25T10:47:43;31.90;99.90
20732;DHT22;10527;52.124;5.196;2022-08-25T10:50:26;31.90;99.90
20732;DHT22;10527;52.124;5.196;2022-08-25T10:53:43;31.60;99.90
20732;DHT22;10527;52.124;5.196;2022-08-25T10:56:35;31.50;99.90
20732;DHT22;10527;52.124;5.196;2022-08-25T10:59:45;31.50;99.90
20732;DHT22;10527;52.124;5.196;2022-08-25T11:06:09;32.00;99.90
20732;DHT22;10527;52.124;5.196;2022-08-25T11:08:35;32.00;99.90
20732;DHT22;10527;52.124;5.196;2022-08-25T11:14:47;31.70;99.90
20732;DHT22;10527;52.124;5.196;2022-08-25T11:20:26;31.80;99.90
20732;DHT22;10527;52.124;5.196;2022-08-25T11:26:09;31.60;99.90
20732;DHT22;10527;52.124;5.196;2022-08-25T11:31:42;31.80;99.90
20732;DHT22;10527;52.124;5.196;2022-08-25T11:34:19;31.60;99.90
20732;DHT22;10527;52.124;5.196;2022-08-25T11:36:57;31.60;99.90
20732;DHT22;10527;52.124;5.196;2022-08-25T11:40:00;31.60;99.90
20732;DHT22;10527;52.124;5.196;2022-08-25T11:51:55;31.70;99.90
20732;DHT22;10527;52.124;5.196;2022-08-25T11:54:43;31.90;99.90
20732;DHT22;10527;52.124;5.196;2022-08-25T11:57:22;32.00;99.90
20732;DHT22;10527;52.124;5.196;2022-08-25T12:00:05;32.00;99.90
20732;DHT22;10527;52.124;5.196;2022-08-25T12:36:27;33.20;99.90
20732;DHT22;10527;52.124;5.196;2022-08-25T12:39:19;33.10;99.90
20732;DHT22;10527;52.124;5.196;2022-08-25T12:41:57;33.00;99.90
20732;DHT22;10527;52.124;5.196;2022-08-25T12:47:12;33.10;99.90
20732;DHT22;10527;52.124;5.196;2022-08-25T12:50:24;33.30;99.90
20732;DHT22;10527;52.124;5.196;2022-08-25T12:53:38;33.10;99.90
20732;DHT22;10527;52.124;5.196;2022-08-25T12:56:43;33.20;99.90
20732;DHT22;10527;52.124;5.196;2022-08-25T12:59:21;33.10;99.90
20732;DHT22;10527;52.124;5.196;2022-08-25T13:07:58;33.00;99.90
20732;DHT22;10527;52.124;5.196;2022-08-25T13:10:48;33.10;99.90
20732;DHT22;10527;52.124;5.196;2022-08-25T13:16:16;33.50;99.90
20732;DHT22;10527;52.124;5.196;2022-08-25T13:18:44;33.60;99.90
20732;DHT22;10527;52.124;5.196;2022-08-25T13:21:19;33.60;99.90
20732;DHT22;10527;52.124;5.196;2022-08-25T13:23:53;33.60;99.90
20732;DHT22;10527;52.124;5.196;2022-08-25T13:26:36;33.60;99.90
20732;DHT22;10527;52.124;5.196;2022-08-25T13:29:19;33.70;99.90
20732;DHT22;10527;52.124;5.196;2022-08-25T13:34:29;33.90;99.90
20732;DHT22;10527;52.124;5.196;2022-08-25T13:37:18;33.80;99.90
20732;DHT22;10527;52.124;5.196;2022-08-25T13:42:59;34.00;99.90
20732;DHT22;10527;52.124;5.196;2022-08-25T13:45:31;33.90;99.90
20732;DHT22;10527;52.124;5.196;2022-08-25T13:48:11;33.50;99.90
20732;DHT22;10527;52.124;5.196;2022-08-25T13:50:49;33.40;99.90
20732;DHT22;10527;52.124;5.196;2022-08-25T13:53:24;33.50;99.90
20732;DHT22;10527;52.124;5.196;2022-08-25T13:55:59;33.40;99.90
20732;DHT22;10527;52.124;5.196;2022-08-25T13:58:31;33.50;99.90
20732;DHT22;10527;52.124;5.196;2022-08-25T14:01:25;33.30;99.90
20732;DHT22;10527;52.124;5.196;2022-08-25T14:10:00;33.30;99.90
20732;DHT22;10527;52.124;5.196;2022-08-25T14:12:35;33.50;99.90
20732;DHT22;10527;52.124;5.196;2022-08-25T14:15:26;33.50;99.90
20732;DHT22;10527;52.124;5.196;2022-08-25T14:18:13;33.50;99.90
20732;DHT22;10527;52.124;5.196;2022-08-25T14:20:53;33.50;99.90
20732;DHT22;10527;52.124;5.196;2022-08-25T14:23:25;33.50;99.90
20732;DHT22;10527;52.124;5.196;2022-08-25T14:25:56;33.30;99.90
20732;DHT22;10527;52.124;5.196;2022-08-25T14:28:26;33.30;99.90
20732;DHT22;10527;52.124;5.196;2022-08-25T14:31:11;33.30;99.90
20732;DHT22;10527;52.124;5.196;2022-08-25T14:34:00;33.30;99.90
20732;DHT22;10527;52.124;5.196;2022-08-25T14:36:32;33.30;99.90
20732;DHT22;10527;52.124;5.196;2022-08-25T14:39:02;33.40;99.90
20732;DHT22;10527;52.124;5.196;2022-08-25T14:41:36;33.60;99.90
20732;DHT22;10527;52.124;5.196;2022-08-25T14:44:08;33.70;99.90
20732;DHT22;10527;52.124;5.196;2022-08-25T14:46:42;33.70;99.90
20732;DHT22;10527;52.124;5.196;2022-08-25T14:49:16;33.70;99.90
20732;DHT22;10527;52.124;5.196;2022-08-25T14:51:50;33.70;99.90
20732;DHT22;10527;52.124;5.196;2022-08-25T14:54:19;33.80;99.90
20732;DHT22;10527;52.124;5.196;2022-08-25T14:56:53;33.90;99.90
20732;DHT22;10527;52.124;5.196;2022-08-25T14:59:20;34.00;99.90
20732;DHT22;10527;52.124;5.196;2022-08-25T15:01:47;33.80;99.90
20732;DHT22;10527;52.124;5.196;2022-08-25T15:04:21;33.60;99.90
20732;DHT22;10527;52.124;5.196;2022-08-25T15:06:55;33.80;99.90
20732;DHT22;10527;52.124;5.196;2022-08-25T15:09:24;34.00;99.90
20732;DHT22;10527;52.124;5.196;2022-08-25T15:11:58;34.20;99.90
20732;DHT22;10527;52.124;5.196;2022-08-25T15:14:25;34.00;99.90
20732;DHT22;10527;52.124;5.196;2022-08-25T15:16:59;33.70;99.90
20732;DHT22;10527;52.124;5.196;2022-08-25T15:19:28;33.70;99.90
20732;DHT22;10527;52.124;5.196;2022-08-25T15:21:55;33.60;99.90
20732;DHT22;10527;52.124;5.196;2022-08-25T15:24:25;33.50;99.90
20732;DHT22;10527;52.124;5.196;2022-08-25T15:26:56;33.50;99.90
20732;DHT22;10527;52.124;5.196;2022-08-25T15:29:26;33.60;99.90
20732;DHT22;10527;52.124;5.196;2022-08-25T15:31:56;33.50;99.90
20732;DHT22;10527;52.124;5.196;2022-08-25T15:34:25;33.50;99.90
20732;DHT22;10527;52.124;5.196;2022-08-25T15:36:54;33.50;99.90
20732;DHT22;10527;52.124;5.196;2022-08-25T15:39:21;33.40;99.90
20732;DHT22;10527;52.124;5.196;2022-08-25T15:41:49;33.40;99.90
20732;DHT22;10527;52.124;5.196;2022-08-25T15:44:18;33.60;99.90
20732;DHT22;10527;52.124;5.196;2022-08-25T15:46:46;33.70;99.90
20732;DHT22;10527;52.124;5.196;2022-08-25T15:49:18;33.70;99.90
20732;DHT22;10527;52.124;5.196;2022-08-25T15:51:51;33.80;99.90
20732;DHT22;10527;52.124;5.196;2022-08-25T15:54:23;33.80;99.90
20732;DHT22;10527;52.124;5.196;2022-08-25T15:56:54;33.80;99.90
20732;DHT22;10527;52.124;5.196;2022-08-25T15:59:22;33.70;99.90
20732;DHT22;10527;52.124;5.196;2022-08-25T16:01:50;33.60;99.90
20732;DHT22;10527;52.124;5.196;2022-08-25T16:04:22;33.50;99.90
20732;DHT22;10527;52.124;5.196;2022-08-25T16:06:52;33.40;99.90
20732;DHT22;10527;52.124;5.196;2022-08-25T16:09:20;33.10;99.90
20732;DHT22;10527;52.124;5.196;2022-08-25T16:11:49;33.00;99.90
20732;DHT22;10527;52.124;5.196;2022-08-25T16:14:23;32.90;99.90
20732;DHT22;10527;52.124;5.196;2022-08-25T16:16:50;32.70;99.90
20732;DHT22;10527;52.124;5.196;2022-08-25T16:19:26;32.60;99.90
20732;DHT22;10527;52.124;5.196;2022-08-25T16:21:54;32.40;99.90
20732;DHT22;10527;52.124;5.196;2022-08-25T16:24:22;32.40;99.90
20732;DHT22;10527;52.124;5.196;2022-08-25T16:26:50;32.40;99.90
20732;DHT22;10527;52.124;5.196;2022-08-25T16:29:17;32.40;99.90
20732;DHT22;10527;52.124;5.196;2022-08-25T16:31:45;32.20;99.90
20732;DHT22;10527;52.124;5.196;2022-08-25T16:34:20;32.00;99.90
20732;DHT22;10527;52.124;5.196;2022-08-25T16:36:54;31.90;99.90
20732;DHT22;10527;52.124;5.196;2022-08-25T16:39:21;31.60;99.90
20732;DHT22;10527;52.124;5.196;2022-08-25T16:41:50;31.40;99.90
20732;DHT22;10527;52.124;5.196;2022-08-25T16:44:18;31.10;99.90
20732;DHT22;10527;52.124;5.196;2022-08-25T16:46:49;31.10;99.90
20732;DHT22;10527;52.124;5.196;2022-08-25T16:49:20;30.90;99.90
20732;DHT22;10527;52.124;5.196;2022-08-25T16:51:50;30.60;99.90
20732;DHT22;10527;52.124;5.196;2022-08-25T16:54:25;30.50;99.90
20732;DHT22;10527;52.124;5.196;2022-08-25T16:57:11;30.10;99.90
20732;DHT22;10527;52.124;5.196;2022-08-25T16:59:38;30.00;99.90
20732;DHT22;10527;52.124;5.196;2022-08-25T17:02:05;29.90;99.90
20732;DHT22;10527;52.124;5.196;2022-08-25T17:04:32;29.70;99.90
20732;DHT22;10527;52.124;5.196;2022-08-25T17:06:59;29.60;99.90
20732;DHT22;10527;52.124;5.196;2022-08-25T17:09:30;29.50;99.90
20732;DHT22;10527;52.124;5.196;2022-08-25T17:12:00;29.40;99.90
20732;DHT22;10527;52.124;5.196;2022-08-25T17:14:26;29.30;99.90
20732;DHT22;10527;52.124;5.196;2022-08-25T17:16:54;29.20;99.90
20732;DHT22;10527;52.124;5.196;2022-08-25T17:19:21;29.10;99.90
20732;DHT22;10527;52.124;5.196;2022-08-25T17:21:52;28.90;99.90
20732;DHT22;10527;52.124;5.196;2022-08-25T17:24:21;28.90;99.90
20732;DHT22;10527;52.124;5.196;2022-08-25T17:26:57;28.80;99.90
20732;DHT22;10527;52.124;5.196;2022-08-25T17:29:24;28.60;99.90
20732;DHT22;10527;52.124;5.196;2022-08-25T17:31:51;28.50;99.90
20732;DHT22;10527;52.124;5.196;2022-08-25T17:34:18;28.40;99.90
20732;DHT22;10527;52.124;5.196;2022-08-25T17:36:49;28.40;99.90
20732;DHT22;10527;52.124;5.196;2022-08-25T17:39:18;28.00;99.90
20732;DHT22;10527;52.124;5.196;2022-08-25T17:41:48;28.00;99.90
20732;DHT22;10527;52.124;5.196;2022-08-25T17:44:16;28.00;99.90
20732;DHT22;10527;52.124;5.196;2022-08-25T17:46:44;27.90;99.90
20732;DHT22;10527;52.124;5.196;2022-08-25T17:49:15;27.90;99.90
20732;DHT22;10527;52.124;5.196;2022-08-25T17:51:44;27.70;99.90
20732;DHT22;10527;52.124;5.196;2022-08-25T17:54:11;27.70;99.90
20732;DHT22;10527;52.124;5.196;2022-08-25T17:56:38;27.70;99.90
20732;DHT22;10527;52.124;5.196;2022-08-25T17:59:06;27.50;99.90
20732;DHT22;10527;52.124;5.196;2022-08-25T18:01:35;27.50;99.90
20732;DHT22;10527;52.124;5.196;2022-08-25T18:04:11;27.60;99.90
20732;DHT22;10527;52.124;5.196;2022-08-25T18:06:43;27.60;99.90
20732;DHT22;10527;52.124;5.196;2022-08-25T18:09:11;27.50;99.90
20732;DHT22;10527;52.124;5.196;2022-08-25T18:11:40;27.60;99.90
20732;DHT22;10527;52.124;5.196;2022-08-25T18:14:08;27.50;99.90